Nearby METAR Reports

 

KLXT - Lees Summit Muni, Missouri, USA
Distance from station: E 5mi, 9km
Updated: Sat, 28-Mar-2015 12:53pm CDT
Overcast
Overcast
 Wind from SE
Wind: SE 15 mph , 24 km/h, Gust: 22 mph , 35 km/h
Temperature: 46°F , 8°C
Wind Chill: 40°F , 4°C
Dew Point: 28°F , -2°C
Humidity: 50%
Barometer: 30.18 inHg , 1022 hPa
Clouds: Overcast
Visibility: 10 miles , 16 km
Cloud details: Overcast 5500 ft
2015/03/28 17:53 KLXT 281753Z AUTO 13013G19KT 10SM OVC055 08/M02 A3018 RMK AO2 SLP226 T00781017 10083 20022 58001
KMKC - Kansas City/Dntn, Missouri, USA
Distance from station: NW 12mi, 19km
Updated: Sat, 28-Mar-2015 12:54pm CDT
Overcast
Overcast
 Wind from SE
Wind: SE 13 mph , 20 km/h, Gust: 17 mph , 28 km/h
Temperature: 48°F , 9°C
Wind Chill: 43°F , 6°C
Dew Point: 28°F , -2°C
Humidity: 46%
Barometer: 30.17 inHg , 1021.7 hPa
Clouds: Overcast
Visibility: 10 miles , 16 km
Cloud details: Overcast 6000 ft
2015/03/28 17:54 KMKC 281754Z 13011G15KT 10SM OVC060 09/M02 A3017 RMK AO2 SLP220 T00891017 10094 20033 58003
 
KIXD - Olathe/Industria, Kansas, USA
Distance from station: WSW 25mi, 41km
Updated: Sat, 28-Mar-2015 12:53pm CDT
Clear
Clear
 Wind from ESE
Wind: ESE 14 mph , 22 km/h, Gust: 23 mph , 37 km/h
Temperature: 48°F , 9°C
Wind Chill: 42°F , 6°C
Dew Point: 30°F , -1°C
Humidity: 50%
Barometer: 30.16 inHg , 1021.3 hPa
Clouds: Clear
Visibility: 10 miles , 16 km
2015/03/28 17:53 KIXD 281753Z 12012G20KT 10SM CLR 09/M01 A3016 RMK AO2 SLP215 T00891011 10089 20028 58001
KMCI - Kansas City/Intl, Missouri, USA
Distance from station: NW 26mi, 42km
Updated: Sat, 28-Mar-2015 12:53pm CDT
Overcast
Overcast
 Wind from SE
Wind: SE 12 mph , 19 km/h, Gust: 23 mph , 37 km/h
Temperature: 48°F , 9°C
Wind Chill: 43°F , 6°C
Dew Point: 30°F , -1°C
Humidity: 50%
Barometer: 30.17 inHg , 1021.7 hPa
Clouds: Overcast
Visibility: 10 miles , 16 km
Cloud details: Mostly cloudy 6000 ft
Overcast 10000 ft
2015/03/28 17:53 KMCI 281753Z 13010G20KT 10SM BKN060 OVC100 09/M01 A3017 RMK AO2 SLP219 T00891006 10089 20022 58001
 
KRCM - Warrensburg Skyh, Missouri, USA
Distance from station: ESE 38mi, 62km
Updated: Sat, 28-Mar-2015 1:35pm CDT
Partly cloudy
Partly cloudy
 Wind from E
Wind: E 13 mph , 20 km/h, Gust: 17 mph , 28 km/h
Temperature: 48°F , 9°C
Wind Chill: 43°F , 6°C
Dew Point: 30°F , -1°C
Humidity: 50%
Barometer: 30.20 inHg , 1022.7 hPa
Clouds: Partly cloudy
Visibility: 10 miles , 16 km
Cloud details: Partly cloudy 7000 ft
2015/03/28 18:35 KRCM 281835Z AUTO 09011G15KT 10SM SCT070 09/M01 A3020 RMK AO2
KLWC - Lawrence, Kansas, USA
Distance from station: W 40mi, 65km
Updated: Sat, 28-Mar-2015 12:52pm CDT
Clear
Clear
 Wind from ESE
Wind: ESE 17 mph , 28 km/h, Gust: 23 mph , 37 km/h
Temperature: 52°F , 11°C
Dew Point: 28°F , -2°C
Humidity: 41%
Barometer: 30.15 inHg , 1021 hPa
Clouds: Clear
Visibility: 10 miles , 16 km
2015/03/28 17:52 KLWC 281752Z AUTO 11015G20KT 10SM CLR 11/M02 A3015 RMK AO2 SLP213 T01061017 10106 20022 58001
 
KSZL - Whiteman Afb, Missouri, USA
Distance from station: ESE 53mi, 86km
Updated: Sat, 28-Mar-2015 12:58pm CDT
Clear
Clear
 Wind from SSE
Wind: SSE 10 mph , 17 km/h
Temperature: 45°F , 7°C
Wind Chill: 40°F , 4°C
Dew Point: 34°F , 1°C
Humidity: 66%
Barometer: 30.20 inHg , 1022.7 hPa
Clouds: Clear
Visibility: 10 miles , 16 km
2015/03/28 17:58 KSZL 281758Z AUTO 16009KT 10SM CLR 07/01 A3020 RMK AO2 SLP234 60000 T00740005 10074 20015 58004 $
KSTJ - St. Joseph, Missouri, USA
Distance from station: NNW 59mi, 95km
Updated: Sat, 28-Mar-2015 12:53pm CDT
Clear
Clear
 Wind from ESE
Wind: ESE 10 mph , 17 km/h, Gust: 21 mph , 33 km/h
Temperature: 48°F , 9°C
Wind Chill: 44°F , 7°C
Dew Point: 30°F , -1°C
Humidity: 50%
Barometer: 30.18 inHg , 1022 hPa
Clouds: Clear
Visibility: 10 miles , 16 km
2015/03/28 17:53 KSTJ 281753Z 12009G18KT 10SM CLR 09/M01 A3018 RMK AO2 SLP223 T00891011 10089 20017 58004
 
KGLY - Clinton, Missouri, USA
Distance from station: SE 61mi, 98km
Updated: Sat, 28-Mar-2015 1:35pm CDT
Mostly cloudy
Mostly cloudy
 Wind from ESE
Wind: ESE 15 mph , 24 km/h, Gust: 21 mph , 33 km/h
Temperature: 46°F , 8°C
Wind Chill: 40°F , 4°C
Dew Point: 32°F , 0°C
Humidity: 57%
Barometer: 30.20 inHg , 1022.7 hPa
Clouds: Mostly cloudy
Visibility: 10 miles , 16 km
Cloud details: Mostly cloudy 6500 ft
2015/03/28 18:35 KGLY 281835Z AUTO 12013G18KT 10SM BKN065 08/00 A3020 RMK AO2
KFOE - Topeka/Forbes, Kansas, USA
Distance from station: W 64mi, 103km
Updated: Sat, 28-Mar-2015 12:53pm CDT
Clear
Clear
 Wind from ESE
Wind: ESE 16 mph , 26 km/h
Temperature: 54°F , 12°C
Dew Point: 30°F , -1°C
Humidity: 41%
Barometer: 30.12 inHg , 1020 hPa
Clouds: Clear
Visibility: 10 miles , 16 km
2015/03/28 17:53 KFOE 281753Z 12014KT 10SM CLR 12/M01 A3012 RMK AO2 SLP201 T01221006 10122 20039 50001
 
KDMO - Sedalia, Missouri, USA
Distance from station: ESE 72mi, 116km
Updated: Sat, 28-Mar-2015 12:53pm CDT
Partly cloudy
Partly cloudy
 Wind from ESE
Wind: ESE 10 mph , 17 km/h
Temperature: 46°F , 8°C
Wind Chill: 41°F , 5°C
Dew Point: 30°F , -1°C
Humidity: 53%
Barometer: 30.22 inHg , 1023.4 hPa
Clouds: Partly cloudy
Visibility: 10 miles , 16 km
Cloud details: Partly cloudy 7500 ft
2015/03/28 17:53 KDMO 281753Z AUTO 11009KT 10SM SCT075 08/M01 A3022 RMK AO2 SLP239 T00781006 10083 20017 58005
KCDJ - Chillicothe, Missouri, USA
Distance from station: NE 74mi, 120km
Updated: Sat, 28-Mar-2015 12:52pm CDT

 Wind from SE
Wind: SE 14 mph , 22 km/h, Gust: 23 mph , 37 km/h
Temperature: 45°F , 7°C
Wind Chill: 39°F , 4°C
Dew Point: 30°F , -1°C
Humidity: 57%
Barometer: 30.25 inHg , 1024.4 hPa
2015/03/28 17:52 KCDJ 281752Z AUTO 13012G20KT 07/M01 A3025 RMK AO1 SLP250 T00671011 10067 20006 58003
 
KFNB - Falls City/Brenn, Nebraska, USA
Distance from station: NW 96mi, 154km
Updated: Sat, 28-Mar-2015 12:53pm CDT
Clear
Clear
 Wind from SE
Wind: SE 14 mph , 22 km/h, Gust: 23 mph , 37 km/h
Temperature: 48°F , 9°C
Wind Chill: 42°F , 6°C
Dew Point: 30°F , -1°C
Humidity: 50%
Barometer: 30.15 inHg , 1021 hPa
Clouds: Clear
Visibility: 10 miles , 16 km
2015/03/28 17:53 KFNB 281753Z AUTO 13012G20KT 10SM CLR 09/M01 A3015 RMK AO2 SLP213 T00941011 10106 20011 58000
KVER - Boonville, Missouri, USA
Distance from station: E 96mi, 154km
Updated: Sat, 28-Mar-2015 1:35pm CDT
Overcast
Overcast
 Wind from ESE
Wind: ESE 10 mph , 17 km/h
Temperature: 45°F , 7°C
Wind Chill: 40°F , 4°C
Dew Point: 30°F , -1°C
Humidity: 57%
Barometer: 30.24 inHg , 1024 hPa
Clouds: Overcast
Visibility: 10 miles , 16 km
Cloud details: Overcast 2900 ft
2015/03/28 18:35 KVER 281835Z AUTO 11009KT 10SM OVC029 07/M01 A3024 RMK AO2 T00681014